Time;durP1;ratioP1;P1;durP2;ratioP2;P2;SDS_P1;SDS_P2;PMS_P1;PMS_P2;Temp;Humidity;BMP_temperature;BMP_pressure;BME280_temperature;BME280_humidity;BME280_pressure;Samples;Min_cycle;Max_cycle;Signal;HPM_P1;HPM_P2
2021/12/23 00:01:31;562365.00;1.87;969.28;19082.00;0.06;33.68;;;;;1.80;1.00;;;;;;2260216;61;1007;-89
2021/12/23 00:03:58;445948.00;1.49;768.81;0.00;0.00;0.62;;;;;2.20;1.00;;;;;;2256169;61;1918;-89
2021/12/23 00:06:25;515544.00;1.72;888.59;0.00;0.00;0.62;;;;;3.40;1.00;;;;;;2255970;61;997;-88
2021/12/23 00:08:52;313082.00;1.04;540.41;0.00;0.00;0.62;;;;;4.40;1.00;;;;;;2256198;61;1322;-89
2021/12/23 00:11:20;355385.00;1.18;613.12;0.00;0.00;0.62;;;;;3.90;1.00;;;;;;2249537;61;1096;-89
2021/12/23 00:13:59;456637.00;1.52;787.20;0.00;0.00;0.62;;;;;4.50;1.00;;;;;;2249518;61;1009;-88
2021/12/23 00:16:41;413761.00;1.38;713.46;0.00;0.00;0.62;;;;;5.10;1.00;;;;;;2248975;61;1061;-88
2021/12/23 00:19:18;362761.00;1.21;625.79;0.00;0.00;0.62;;;;;5.80;1.00;;;;;;2258355;61;1381;-88
2021/12/23 00:24:30;531987.00;1.77;916.92;0.00;0.00;0.62;;;;;5.40;1.00;;;;;;2268679;61;1912;-88
2021/12/23 00:26:57;406554.00;1.36;701.07;0.00;0.00;0.62;;;;;5.00;1.00;;;;;;2268664;61;1048;-88
2021/12/23 00:29:23;536256.00;1.79;924.27;0.00;0.00;0.62;;;;;5.20;1.00;;;;;;2268073;61;1286;-89
2021/12/23 00:31:52;362239.00;1.21;624.90;0.00;0.00;0.62;;;;;5.10;1.00;;;;;;2268665;61;1020;-88
2021/12/23 00:34:19;412073.00;1.37;710.56;0.00;0.00;0.62;;;;;5.60;1.00;;;;;;2264822;61;1009;-88
2021/12/23 00:36:46;387402.00;1.29;668.15;0.00;0.00;0.62;;;;;5.80;1.00;;;;;;2264864;61;1017;-88
2021/12/23 00:39:15;424233.00;1.41;731.47;0.00;0.00;0.62;;;;;5.30;1.00;;;;;;2264796;61;1330;-89
2021/12/23 00:41:44;513671.00;1.71;885.36;0.00;0.00;0.62;;;;;5.20;1.00;;;;;;2261524;61;1071;-89
2021/12/23 00:44:12;320611.00;1.07;553.35;0.00;0.00;0.62;;;;;4.50;1.00;;;;;;2268831;61;1927;-89
2021/12/23 00:46:39;477202.00;1.59;822.58;0.00;0.00;0.62;;;;;4.20;1.00;;;;;;2272636;61;932;-89
2021/12/23 00:49:08;602742.00;2.01;1038.95;0.00;0.00;0.62;;;;;4.30;1.00;;;;;;2265440;61;1420;-89
2021/12/23 00:51:35;491501.00;1.64;847.19;0.00;0.00;0.62;;;;;4.20;1.00;;;;;;2268793;61;1133;-89
2021/12/23 00:54:05;463764.00;1.55;799.46;0.00;0.00;0.62;;;;;4.90;1.00;;;;;;2268796;61;1149;-89
2021/12/23 00:56:33;356726.00;1.19;615.42;0.00;0.00;0.62;;;;;5.40;1.00;;;;;;2265505;61;1072;-87
2021/12/23 00:59:01;350108.00;1.17;604.05;0.00;0.00;0.62;;;;;5.60;1.00;;;;;;2253645;61;1396;-89
2021/12/23 01:01:28;417352.00;1.39;719.64;0.00;0.00;0.62;;;;;5.20;1.00;;;;;;2270005;61;1016;-88
2021/12/23 01:03:54;464491.00;1.55;800.71;0.00;0.00;0.62;;;;;4.10;1.00;;;;;;2267911;61;1931;-88
2021/12/23 01:06:23;514963.00;1.72;887.59;224.00;0.00;1.01;;;;;2.90;1.00;;;;;;2258052;61;1182;-88
2021/12/23 01:08:50;431831.00;1.44;744.53;0.00;0.00;0.62;;;;;1.90;1.00;;;;;;2267987;61;1257;-89
2021/12/23 01:11:17;602011.00;2.01;1037.69;0.00;0.00;0.62;;;;;1.30;1.00;;;;;;2258001;61;1005;-88
2021/12/23 01:13:59;504377.00;1.68;869.36;0.00;0.00;0.62;;;;;0.90;1.00;;;;;;2258002;61;1138;-88
2021/12/23 01:16:47;436928.00;1.46;753.30;0.00;0.00;0.62;;;;;1.00;1.00;;;;;;2257970;61;993;-88
2021/12/23 01:19:13;425851.00;1.42;734.25;0.00;0.00;0.62;;;;;1.80;1.00;;;;;;2255944;61;1456;-88
2021/12/23 01:21:42;532082.00;1.77;917.08;0.00;0.00;0.62;;;;;2.90;1.00;;;;;;2257400;61;890;-89
2021/12/23 01:24:10;467361.00;1.56;805.65;0.00;0.00;0.62;;;;;2.70;1.00;;;;;;2256568;61;1920;-88
2021/12/23 01:26:38;527142.00;1.76;908.57;0.00;0.00;0.62;;;;;2.40;1.00;;;;;;2259947;61;918;-88
2021/12/23 01:29:05;481310.00;1.60;829.65;0.00;0.00;0.62;;;;;2.10;1.00;;;;;;2259912;61;1365;-89
2021/12/23 01:31:34;499232.00;1.66;860.50;0.00;0.00;0.62;;;;;1.70;1.00;;;;;;2259982;61;1017;-88
2021/12/23 01:34:02;436559.00;1.46;752.67;0.00;0.00;0.62;;;;;1.30;1.00;;;;;;2255879;61;954;-88
2021/12/23 01:36:29;394066.00;1.31;679.60;0.00;0.00;0.62;;;;;1.10;1.00;;;;;;2250529;61;1181;-89
2021/12/23 01:38:58;790056.00;2.63;1363.79;0.00;0.00;0.62;;;;;1.10;1.00;;;;;;2260504;61;1362;-89
2021/12/23 01:41:28;402943.00;1.34;694.86;0.00;0.00;0.62;;;;;1.30;1.00;;;;;;2260577;61;947;-88
2021/12/23 01:43:55;599165.00;2.00;1032.78;0.00;0.00;0.62;;;;;1.20;1.00;;;;;;2263962;61;966;-88
2021/12/23 01:46:23;468488.00;1.56;807.59;0.00;0.00;0.62;;;;;1.00;1.00;;;;;;2263821;61;2015;-90
2021/12/23 01:48:50;493034.00;1.64;849.83;0.00;0.00;0.62;;;;;1.40;1.00;;;;;;2263834;61;1432;-88
2021/12/23 01:51:17;599575.00;2.00;1033.49;14621.00;0.05;25.95;;;;;1.20;1.00;;;;;;2261039;61;940;-88
2021/12/23 01:53:45;329404.00;1.10;568.46;0.00;0.00;0.62;;;;;1.20;1.00;;;;;;2264531;61;1033;-88
2021/12/23 01:56:13;445809.00;1.49;768.57;0.00;0.00;0.62;;;;;1.30;1.00;;;;;;2267943;61;1023;-89
2021/12/23 01:58:42;569143.00;1.90;980.97;0.00;0.00;0.62;;;;;1.30;1.00;;;;;;2264526;61;958;-88
2021/12/23 02:01:10;691391.00;2.30;1192.31;21268.00;0.07;37.47;;;;;1.40;1.00;;;;;;2264523;61;1472;-88
2021/12/23 02:03:38;435154.00;1.45;750.25;0.00;0.00;0.62;;;;;1.20;1.00;;;;;;2267857;61;1076;-88
2021/12/23 02:06:08;515436.00;1.72;888.40;10177.00;0.03;18.26;;;;;1.30;1.00;;;;;;2267859;61;1919;-89
2021/12/23 02:08:37;428708.00;1.43;739.16;0.00;0.00;0.62;;;;;1.20;1.00;;;;;;2265194;61;1157;-86
2021/12/23 02:11:06;575406.00;1.92;991.77;0.00;0.00;0.62;;;;;1.00;1.00;;;;;;2272331;61;1419;-89
2021/12/23 02:13:35;527132.00;1.76;908.55;0.00;0.00;0.62;;;;;0.90;1.00;;;;;;2268463;61;959;-89
2021/12/23 02:16:04;548122.00;1.83;944.72;0.00;0.00;0.62;;;;;0.70;1.00;;;;;;2268533;61;1024;-89
2021/12/23 02:18:32;453485.00;1.51;781.78;0.00;0.00;0.62;;;;;0.50;1.00;;;;;;2250476;61;972;-88
2021/12/23 02:21:01;484522.00;1.62;835.18;0.00;0.00;0.62;;;;;1.40;1.00;;;;;;2268528;61;1404;-89
2021/12/23 02:23:28;526010.00;1.75;906.62;0.00;0.00;0.62;;;;;1.40;1.00;;;;;;2265230;61;1016;-89
2021/12/23 02:25:55;375860.00;1.25;648.31;0.00;0.00;0.62;;;;;1.00;1.00;;;;;;2272213;61;1986;-88
2021/12/23 02:28:23;506796.00;1.69;873.53;0.00;0.00;0.62;;;;;0.70;1.00;;;;;;2268512;61;1017;-88
2021/12/23 02:30:52;508254.00;1.69;876.04;0.00;0.00;0.62;;;;;0.60;1.00;;;;;;2269172;61;1393;-88
2021/12/23 02:33:20;544541.00;1.82;938.55;0.00;0.00;0.62;;;;;0.80;1.00;;;;;;2269100;61;1033;-89
2021/12/23 02:35:47;522200.00;1.74;900.05;0.00;0.00;0.62;;;;;0.70;1.00;;;;;;2252227;61;1018;-88
2021/12/23 02:38:15;431740.00;1.44;744.38;0.00;0.00;0.62;;;;;0.90;1.00;;;;;;2272980;61;1049;-88
2021/12/23 02:40:44;611989.00;2.04;1054.93;0.00;0.00;0.62;;;;;0.70;1.00;;;;;;2265856;61;1412;-88
2021/12/23 02:43:13;496227.00;1.65;855.33;0.00;0.00;0.62;;;;;0.80;1.00;;;;;;2269205;61;1028;-89
2021/12/23 02:45:41;457004.00;1.52;787.83;0.00;0.00;0.62;;;;;1.00;1.00;;;;;;2269155;61;2001;-89
2021/12/23 02:48:13;737465.00;2.46;1272.27;0.00;0.00;0.62;;;;;0.90;1.00;;;;;;2253003;61;997;-88
2021/12/23 02:50:41;444703.00;1.48;766.67;0.00;0.00;0.62;;;;;0.80;1.00;;;;;;2264384;61;1366;-89
2021/12/23 02:53:09;585789.00;1.95;1009.69;0.00;0.00;0.62;;;;;0.90;1.00;;;;;;2264416;61;1015;-87
2021/12/23 02:55:37;390057.00;1.30;672.71;0.00;0.00;0.62;;;;;1.00;1.00;;;;;;2254465;61;952;-89
2021/12/23 02:58:05;411179.00;1.37;709.02;0.00;0.00;0.62;;;;;1.10;1.00;;;;;;2254451;61;971;-88
2021/12/23 03:00:32;382276.00;1.27;659.34;0.00;0.00;0.62;;;;;1.20;1.00;;;;;;2257731;61;1460;-88
2021/12/23 03:02:59;479725.00;1.60;826.92;0.00;0.00;0.62;;;;;0.90;1.00;;;;;;2257762;61;1010;-88
2021/12/23 03:05:26;581675.00;1.94;1002.59;0.00;0.00;0.62;;;;;1.10;1.00;;;;;;2257767;61;2001;-90
2021/12/23 03:07:54;413729.00;1.38;713.41;0.00;0.00;0.62;;;;;1.70;1.00;;;;;;2258851;61;988;-88
2021/12/23 03:10:22;635717.00;2.12;1095.93;0.00;0.00;0.62;;;;;1.10;1.00;;;;;;2272903;61;1422;-89
2021/12/23 03:12:51;586491.00;1.95;1010.90;0.00;0.00;0.62;;;;;1.10;1.00;;;;;;2272934;61;936;-87
2021/12/23 03:15:18;420121.00;1.40;724.40;0.00;0.00;0.62;;;;;1.10;1.00;;;;;;2268278;61;998;-89
2021/12/23 03:17:45;673303.00;2.24;1160.97;0.00;0.00;0.62;;;;;0.80;1.00;;;;;;2261668;61;1208;-88
2021/12/23 03:20:13;585714.00;1.95;1009.56;0.00;0.00;0.62;;;;;1.00;1.00;;;;;;2268266;61;1426;-89
2021/12/23 03:22:40;591067.00;1.97;1018.80;0.00;0.00;0.62;;;;;1.00;1.00;;;;;;2261637;61;1065;-88
2021/12/23 03:25:08;582185.00;1.94;1003.47;0.00;0.00;0.62;;;;;1.20;1.00;;;;;;2268341;61;1984;-89
2021/12/23 03:27:35;551021.00;1.84;949.72;0.00;0.00;0.62;;;;;0.90;1.00;;;;;;2264184;61;1022;-89
2021/12/23 03:30:05;520111.00;1.73;896.46;0.00;0.00;0.62;;;;;0.80;1.00;;;;;;2254364;61;1437;-89
2021/12/23 03:32:32;484987.00;1.62;835.98;0.00;0.00;0.62;;;;;0.40;1.00;;;;;;2256709;61;1006;-89
2021/12/23 03:34:59;117602312.00;392.01;65883728.00;0.00;0.00;0.62;;;;;0.60;1.00;;;;;;2256914;61;1034;-89
2021/12/23 03:37:26;409281.00;1.36;705.76;0.00;0.00;0.62;;;;;0.90;1.00;;;;;;2260333;61;1031;-89
2021/12/23 03:39:53;455637.00;1.52;785.48;0.00;0.00;0.62;;;;;0.90;1.00;;;;;;2256932;61;1456;-88
2021/12/23 03:42:20;571768.00;1.91;985.50;0.00;0.00;0.62;;;;;0.70;1.00;;;;;;2253648;61;939;-89
2021/12/23 03:44:49;439816.00;1.47;758.27;0.00;0.00;0.62;;;;;0.70;1.00;;;;;;2257266;61;1911;-88
2021/12/23 03:47:17;609931.00;2.03;1051.37;0.00;0.00;0.62;;;;;0.60;1.00;;;;;;2264272;61;996;-87
2021/12/23 03:49:45;612487.00;2.04;1055.79;0.00;0.00;0.62;;;;;0.40;1.00;;;;;;2261123;61;1433;-89
2021/12/23 03:52:12;362247.00;1.21;624.91;0.00;0.00;0.62;;;;;0.80;1.00;;;;;;2268326;61;1133;-88
2021/12/23 03:54:38;660922.00;2.20;1139.54;20637.00;0.07;36.37;;;;;1.00;1.00;;;;;;2264824;61;1029;-89
2021/12/23 03:57:06;519283.00;1.73;895.03;0.00;0.00;0.62;;;;;1.20;1.00;;;;;;2264039;61;1005;-87
2021/12/23 03:59:33;545997.00;1.82;941.06;13284.00;0.04;23.64;;;;;1.50;1.00;;;;;;2257360;61;1325;-89
2021/12/23 04:02:01;389519.00;1.30;671.79;0.00;0.00;0.62;;;;;2.00;1.00;;;;;;2259583;61;1125;-91
2021/12/23 04:04:29;447305.00;1.49;771.15;0.00;0.00;0.62;;;;;1.80;1.00;;;;;;2260791;61;1057;-88
2021/12/23 04:06:56;505377.00;1.68;871.08;0.00;0.00;0.62;;;;;1.50;1.00;;;;;;2259893;61;2025;-88
2021/12/23 04:09:23;529898.00;1.77;913.32;0.00;0.00;0.62;;;;;1.90;1.00;;;;;;2257729;61;1401;-88
2021/12/23 04:11:50;452614.00;1.51;780.28;0.00;0.00;0.62;;;;;1.80;1.00;;;;;;2258241;61;1029;-89
2021/12/23 04:14:17;767411.00;2.56;1324.35;0.00;0.00;0.62;;;;;1.70;1.00;;;;;;2259523;61;943;-89
2021/12/23 04:16:44;524346.00;1.75;903.75;0.00;0.00;0.62;;;;;2.00;1.00;;;;;;2267737;61;1065;-88
2021/12/23 04:19:11;515509.00;1.72;888.53;0.00;0.00;0.62;;;;;2.20;1.00;;;;;;2268872;61;1356;-88
2021/12/23 04:21:41;526905.00;1.76;908.16;0.00;0.00;0.62;;;;;2.60;1.00;;;;;;2272620;61;1083;-88
2021/12/23 04:24:09;504044.00;1.68;868.79;0.00;0.00;0.62;;;;;2.70;1.00;;;;;;2268777;61;1073;-89
2021/12/23 04:26:40;469740.00;1.57;809.74;0.00;0.00;0.62;;;;;1.90;1.00;;;;;;2248987;61;1915;-88
2021/12/23 04:29:08;495757.00;1.65;854.52;0.00;0.00;0.62;;;;;2.10;1.00;;;;;;2247757;61;1310;-89
2021/12/23 04:31:35;710240.00;2.37;1225.00;0.00;0.00;0.62;;;;;2.60;1.00;;;;;;2264005;61;999;-88
2021/12/23 04:34:04;494664.00;1.65;852.64;0.00;0.00;0.62;;;;;3.20;1.00;;;;;;2257476;61;1054;-88
2021/12/23 04:36:31;477302.00;1.59;822.75;0.00;0.00;0.62;;;;;2.80;1.00;;;;;;2260774;61;1016;-88
2021/12/23 04:39:00;576377.00;1.92;993.45;0.00;0.00;0.62;;;;;2.00;1.00;;;;;;2259948;61;1385;-89
2021/12/23 04:41:27;700174.00;2.33;1207.54;69612.00;0.23;121.09;;;;;2.00;1.00;;;;;;2260077;61;1058;-89
2021/12/23 04:43:55;578980.00;1.93;997.94;0.00;0.00;0.62;;;;;2.10;1.00;;;;;;2257274;61;952;-87
2021/12/23 04:46:21;361811.00;1.21;624.16;0.00;0.00;0.62;;;;;2.30;1.00;;;;;;2256640;61;2008;-89
2021/12/23 04:48:48;531379.00;1.77;915.87;0.00;0.00;0.62;;;;;2.40;1.00;;;;;;2263910;61;1407;-87
2021/12/23 04:51:16;457265.00;1.52;788.28;0.00;0.00;0.62;;;;;2.70;1.00;;;;;;2257340;61;1051;-88
2021/12/23 04:53:44;561063.00;1.87;967.03;0.00;0.00;0.62;;;;;2.60;1.00;;;;;;2263874;61;1042;-88
2021/12/23 04:56:13;409853.00;1.37;706.74;0.00;0.00;0.62;;;;;2.70;1.00;;;;;;2258475;61;948;-88
2021/12/23 04:58:42;364880.00;1.22;629.44;0.00;0.00;0.62;;;;;3.60;1.00;;;;;;2267433;61;1066;-89
2021/12/23 05:01:16;426139.00;1.42;734.75;0.00;0.00;0.62;;;;;4.20;1.00;;;;;;2272532;61;1460;-89
2021/12/23 05:03:44;373329.00;1.24;643.96;0.00;0.00;0.62;;;;;4.90;1.00;;;;;;2272593;61;894;-89
2021/12/23 05:06:11;400158.00;1.33;690.08;0.00;0.00;0.62;;;;;4.30;1.00;;;;;;2265444;61;1998;-88
2021/12/23 05:08:38;374476.00;1.25;645.93;0.00;0.00;0.62;;;;;4.10;1.00;;;;;;2272505;61;1082;-88
2021/12/23 05:16:36;378260.00;1.26;652.43;0.00;0.00;0.62;;;;;4.10;1.00;;;;;;2275703;61;1713;-88
2021/12/23 05:19:04;938582.00;3.13;1623.99;89304.00;0.30;155.11;;;;;4.90;1.00;;;;;;2266364;61;1472;-89
2021/12/23 05:21:31;588437.00;1.96;1014.26;81249.00;0.27;141.19;;;;;5.10;1.00;;;;;;2265117;61;1129;-88
2021/12/23 05:23:58;834827.00;2.78;1441.93;90152.00;0.30;156.57;;;;;4.50;1.00;;;;;;2272213;61;1046;-87
2021/12/23 05:26:25;714875.00;2.38;1233.04;98320.00;0.33;170.67;;;;;3.90;1.00;;;;;;2264827;61;2010;-89
2021/12/23 05:28:52;777649.00;2.59;1342.17;99469.00;0.33;172.66;;;;;3.80;1.00;;;;;;2272234;61;1340;-88
2021/12/23 05:31:19;854341.00;2.85;1476.07;112591.00;0.38;195.30;;;;;4.10;1.00;;;;;;2265131;61;1012;-88
2021/12/23 05:33:46;748049.00;2.49;1290.67;96435.00;0.32;167.42;;;;;3.70;1.00;;;;;;2259595;61;1059;-89
2021/12/23 05:36:14;672850.00;2.24;1160.19;92640.00;0.31;160.87;;;;;3.00;1.00;;;;;;2256225;61;994;-88
2021/12/23 05:38:41;804657.00;2.68;1389.25;105506.00;0.35;183.07;;;;;3.90;1.00;;;;;;2256300;61;988;-88
2021/12/23 05:41:08;692426.00;2.31;1194.11;103406.00;0.34;179.45;;;;;4.60;1.00;;;;;;2252556;61;1308;-89
2021/12/23 05:43:35;705555.00;2.35;1216.87;98524.00;0.33;171.02;;;;;4.70;1.00;;;;;;2255578;61;1105;-88
2021/12/23 05:46:03;583150.00;1.94;1005.13;91763.00;0.31;159.35;;;;;5.20;1.00;;;;;;2248800;61;1924;-89
2021/12/23 05:48:30;627475.00;2.09;1081.68;101403.00;0.34;175.99;;;;;5.70;1.00;;;;;;2255580;61;964;-88
2021/12/23 05:50:58;628297.00;2.09;1083.11;99568.00;0.33;172.83;;;;;5.80;1.00;;;;;;2256992;61;1377;-89
2021/12/23 05:53:29;590468.00;1.97;1017.76;96520.00;0.32;167.56;;;;;6.40;1.00;;;;;;2267641;61;911;-88
2021/12/23 05:55:56;1007118.00;3.36;1745.08;102083.00;0.34;177.17;;;;;6.70;1.00;;;;;;2257607;61;1018;-88
2021/12/23 05:58:23;739952.00;2.47;1276.59;99331.00;0.33;172.42;;;;;6.70;1.00;;;;;;2267354;61;1054;-88
2021/12/23 06:00:53;728683.00;2.43;1257.01;102318.00;0.34;177.57;;;;;6.20;1.00;;;;;;2261491;61;1431;-89
2021/12/23 06:03:20;824820.00;2.75;1424.44;97375.00;0.32;169.04;;;;;6.70;1.00;;;;;;2271671;61;872;-89
2021/12/23 06:05:47;694266.00;2.31;1197.30;75259.00;0.25;130.85;;;;;6.10;1.00;;;;;;2263409;61;1999;-89
2021/12/23 06:08:14;746986.00;2.49;1288.82;102004.00;0.34;177.03;;;;;4.40;1.00;;;;;;2256857;61;1076;-88
2021/12/23 06:10:45;851970.00;2.84;1471.92;100154.00;0.33;173.84;;;;;3.20;1.00;;;;;;2263278;61;1417;-89
2021/12/23 06:13:12;1155765.00;3.85;2010.44;110622.00;0.37;191.90;;;;;3.20;1.00;;;;;;2259493;61;1077;-88
2021/12/23 06:15:38;784909.00;2.62;1354.82;103204.00;0.34;179.10;;;;;3.60;1.00;;;;;;2252732;61;1073;-89
2021/12/23 06:18:05;869735.00;2.90;1503.03;99941.00;0.33;173.47;;;;;4.00;1.00;;;;;;2252742;61;936;-89
2021/12/23 06:20:34;1001142.00;3.34;1734.49;102172.00;0.34;177.32;;;;;3.90;1.00;;;;;;2255916;61;1342;-87
2021/12/23 06:23:03;1044731.00;3.48;1811.86;96452.00;0.32;167.45;;;;;3.50;1.00;;;;;;2253934;61;1073;-88
2021/12/23 06:25:30;1025631.00;3.42;1777.92;90453.00;0.30;157.09;;;;;3.60;1.00;;;;;;2267308;61;1027;-88
2021/12/23 06:27:59;798768.00;2.66;1378.98;98072.00;0.33;170.24;;;;;3.60;1.00;;;;;;2255394;61;1041;-89
2021/12/23 06:30:26;1133536.00;3.78;1970.50;119346.00;0.40;206.95;;;;;3.60;1.00;;;;;;2256037;61;1413;-89
2021/12/23 06:32:56;1196715.00;3.99;2084.28;128745.00;0.43;223.17;;;;;3.90;1.00;;;;;;2252581;61;1045;-89
2021/12/23 06:35:26;1275180.00;4.25;2226.75;93159.00;0.31;161.76;;;;;4.50;1.00;;;;;;2252906;61;1154;-88
2021/12/23 06:37:53;1420575.00;4.74;2494.54;95956.00;0.32;166.59;;;;;5.00;1.00;;;;;;2252611;61;964;-88
2021/12/23 06:40:21;1562799.00;5.21;2761.85;152966.00;0.51;264.92;;;;;5.70;1.00;;;;;;2259381;61;1331;-88
2021/12/23 06:42:49;1385261.00;4.62;2429.02;100006.00;0.33;173.58;;;;;4.80;1.00;;;;;;2255594;61;997;-88
2021/12/23 06:45:20;1212487.00;4.04;2112.81;128956.00;0.43;223.53;;;;;4.80;1.00;;;;;;2261617;61;911;-87
2021/12/23 06:47:47;1273625.00;4.25;2223.92;35950.00;0.12;62.88;;;;;5.10;1.00;;;;;;2264714;61;1928;-88
2021/12/23 06:50:18;1224525.00;4.08;2134.62;80776.00;0.27;140.38;;;;;4.20;1.00;;;;;;2264610;61;1322;-88
2021/12/23 06:52:46;1306874.00;4.36;2284.69;12303.00;0.04;21.94;;;;;4.30;1.00;;;;;;2264797;61;965;-87
2021/12/23 06:55:15;994538.00;3.32;1722.80;0.00;0.00;0.62;;;;;5.20;1.00;;;;;;2264384;61;1017;-87
2021/12/23 06:57:43;1068380.00;3.56;1853.97;6068.00;0.02;11.14;;;;;4.60;1.00;;;;;;2271821;61;1150;-87
2021/12/23 07:00:14;1331583.00;4.44;2330.02;12768.00;0.04;22.74;;;;;4.70;1.00;;;;;;2266968;61;1258;-88
2021/12/23 07:02:43;1337220.00;4.46;2340.39;19237.00;0.06;33.95;;;;;4.60;1.00;;;;;;2260582;61;1029;-86
2021/12/23 07:05:12;1418489.00;4.73;2490.66;13255.00;0.04;23.59;;;;;4.20;1.00;;;;;;2267117;61;1019;-88
2021/12/23 07:07:52;1319367.00;4.40;2307.59;104372.00;0.35;181.12;;;;;3.10;1.00;;;;;;2263928;61;2039;-88
2021/12/23 07:10:20;655810.00;2.19;1130.69;0.00;0.00;0.62;;;;;2.40;1.00;;;;;;2263116;61;1271;-88
2021/12/23 07:12:47;519789.00;1.73;895.90;0.00;0.00;0.62;;;;;2.70;1.00;;;;;;2256592;61;1145;-88
2021/12/23 07:15:14;829416.00;2.76;1432.47;0.00;0.00;0.62;;;;;3.00;1.00;;;;;;2263420;61;1039;-87
2021/12/23 07:17:41;786533.00;2.62;1357.65;0.00;0.00;0.62;;;;;2.80;1.00;;;;;;2257036;61;1076;-88
2021/12/23 07:20:10;659579.00;2.20;1137.21;862.00;0.00;2.11;;;;;1.50;1.00;;;;;;2263996;61;1321;-88
2021/12/23 07:22:37;690303.00;2.30;1190.43;0.00;0.00;0.62;;;;;0.70;1.00;;;;;;2256946;61;1048;-87
2021/12/23 07:25:06;951096.00;3.17;1646.04;0.00;0.00;0.62;;;;;0.10;1.00;;;;;;2263906;61;1117;-88
2021/12/23 07:27:33;951225.00;3.17;1646.27;0.00;0.00;0.62;;;;;0.00;1.00;;;;;;2254744;61;2001;-89
2021/12/23 07:30:01;884473.00;2.95;1528.87;21869.00;0.07;38.51;;;;;0.00;1.00;;;;;;2267729;61;1318;-88
2021/12/23 07:32:28;1410091.00;4.70;2475.05;0.00;0.00;0.62;;;;;0.30;1.00;;;;;;2267982;61;994;-86
2021/12/23 07:34:55;968334.00;3.23;1676.47;7210.00;0.02;13.12;;;;;2.00;1.00;;;;;;2257670;61;1091;-87
2021/12/23 07:37:26;1030355.00;3.43;1786.31;39727.00;0.13;69.42;;;;;3.00;1.00;;;;;;2267782;61;1121;-87
2021/12/23 07:40:03;923175.00;3.08;1596.86;0.00;0.00;0.62;;;;;3.40;1.00;;;;;;2267402;61;1420;-89
2021/12/23 07:42:32;840739.00;2.80;1452.27;0.00;0.00;0.62;;;;;3.40;1.00;;;;;;2261161;61;1085;-87
2021/12/23 07:45:01;478340.00;1.59;824.54;0.00;0.00;0.62;;;;;3.40;1.00;;;;;;2267700;61;1053;-88
2021/12/23 07:47:36;445211.00;1.48;767.55;0.00;0.00;0.62;;;;;4.00;1.00;;;;;;2268143;61;2000;-88
2021/12/23 07:50:04;628927.00;2.10;1084.19;0.00;0.00;0.62;;;;;4.00;1.00;;;;;;2263494;61;1451;-88
2021/12/23 07:55:27;472482.00;1.57;814.46;0.00;0.00;0.62;;;;;3.60;1.00;;;;;;2251747;61;979;-87
2021/12/23 07:57:58;880136.00;2.93;1521.26;0.00;0.00;0.62;;;;;3.20;1.00;;;;;;2251802;61;1016;-88
2021/12/23 08:00:29;510742.00;1.70;880.32;0.00;0.00;0.62;;;;;2.80;1.00;;;;;;2248450;61;1473;-87
2021/12/23 08:03:02;693705.00;2.31;1196.32;0.00;0.00;0.62;;;;;2.00;1.00;;;;;;2251900;61;949;-88
2021/12/23 08:05:35;557727.00;1.86;961.28;0.00;0.00;0.62;;;;;2.20;1.00;;;;;;2248475;61;990;-89
2021/12/23 08:08:18;559750.00;1.87;964.77;0.00;0.00;0.62;;;;;2.60;1.00;;;;;;2255235;61;2023;-88
2021/12/23 08:10:50;567553.00;1.89;978.23;0.00;0.00;0.62;;;;;2.30;1.00;;;;;;2253194;61;1345;-87
2021/12/23 08:13:21;653121.00;2.18;1126.04;0.00;0.00;0.62;;;;;2.10;1.00;;;;;;2259726;61;1049;-88
2021/12/23 08:15:48;413661.00;1.38;713.29;0.00;0.00;0.62;;;;;1.90;1.00;;;;;;2259813;61;990;-88
2021/12/23 08:18:15;674614.00;2.25;1163.24;15952.00;0.05;28.26;;;;;2.10;1.00;;;;;;2259525;61;1186;-88
2021/12/23 08:20:42;497905.00;1.66;858.22;0.00;0.00;0.62;;;;;1.50;1.00;;;;;;2256075;61;1449;-87
2021/12/23 08:23:10;117530688.00;391.77;65763308.00;0.00;0.00;0.62;;;;;0.80;1.00;;;;;;2256410;61;1034;-87
2021/12/23 08:25:38;623229.00;2.08;1074.35;0.00;0.00;0.62;;;;;0.50;1.00;;;;;;2256213;61;1115;-87
2021/12/23 08:28:05;503467.00;1.68;867.79;0.00;0.00;0.62;;;;;0.20;1.00;;;;;;2259457;61;1920;-88
2021/12/23 08:30:34;500952.00;1.67;863.46;0.00;0.00;0.62;;;;;0.20;1.00;;;;;;2252365;61;1314;-88
2021/12/23 08:33:01;590810.00;1.97;1018.35;23970.00;0.08;42.14;;;;;0.60;1.00;;;;;;2268501;61;1090;-87
2021/12/23 08:35:28;474159.00;1.58;817.35;0.00;0.00;0.62;;;;;1.40;1.00;;;;;;2264497;61;1032;-88
2021/12/23 08:37:55;432745.00;1.44;746.11;0.00;0.00;0.62;;;;;1.60;1.00;;;;;;2268084;61;1392;-87
2021/12/23 08:40:26;525651.00;1.75;906.00;0.00;0.00;0.62;;;;;1.60;1.00;;;;;;2268093;61;1369;-87
2021/12/23 08:42:53;517536.00;1.73;892.02;0.00;0.00;0.62;;;;;1.40;1.00;;;;;;2268407;61;1177;-88
2021/12/23 08:45:22;632518.00;2.11;1090.40;0.00;0.00;0.62;;;;;1.30;1.00;;;;;;2259639;61;1017;-86
2021/12/23 08:47:49;501331.00;1.67;864.12;0.00;0.00;0.62;;;;;1.40;1.00;;;;;;2251372;61;2003;-88
2021/12/23 08:50:18;415637.00;1.39;716.69;0.00;0.00;0.62;;;;;1.70;1.00;;;;;;2245106;61;1400;-87
2021/12/23 08:52:45;483879.00;1.61;834.07;0.00;0.00;0.62;;;;;2.00;1.00;;;;;;2247988;61;984;-86
2021/12/23 08:55:13;455604.00;1.52;785.42;0.00;0.00;0.62;;;;;2.10;1.00;;;;;;2251335;61;1113;-87
2021/12/23 08:57:44;793897.00;2.65;1370.48;61049.00;0.20;106.29;;;;;2.40;1.00;;;;;;2251143;61;1072;-86
2021/12/23 09:00:14;486138.00;1.62;837.96;0.00;0.00;0.62;;;;;2.60;1.00;;;;;;2250955;61;1255;-87
2021/12/23 09:02:42;522174.00;1.74;900.01;34101.00;0.11;59.68;;;;;2.60;1.00;;;;;;2253457;61;1090;-87
2021/12/23 09:05:10;518940.00;1.73;894.44;0.00;0.00;0.62;;;;;2.40;1.00;;;;;;2258261;61;1013;-86
2021/12/23 09:07:37;305485.00;1.02;527.35;0.00;0.00;0.62;;;;;2.50;1.00;;;;;;2272151;61;1990;-87
2021/12/23 09:10:06;529792.00;1.77;913.13;0.00;0.00;0.62;;;;;2.30;1.00;;;;;;2267311;61;1373;-88
2021/12/23 09:12:34;565288.00;1.88;974.32;69348.00;0.23;120.63;;;;;2.50;1.00;;;;;;2267688;61;976;-87
2021/12/23 09:15:04;445347.00;1.48;767.78;0.00;0.00;0.62;;;;;2.20;1.00;;;;;;2265902;61;1122;-87
2021/12/23 09:17:31;451466.00;1.50;778.30;0.00;0.00;0.62;;;;;2.30;1.00;;;;;;2267391;61;1137;-87
2021/12/23 09:19:58;657638.00;2.19;1133.85;0.00;0.00;0.62;;;;;2.50;1.00;;;;;;2267469;61;1479;-86
2021/12/23 09:22:25;500697.00;1.67;863.02;0.00;0.00;0.62;;;;;2.30;1.00;;;;;;2267356;61;1067;-87
2021/12/23 09:24:56;497872.00;1.66;858.16;0.00;0.00;0.62;;;;;2.50;1.00;;;;;;2260691;61;1173;-87
2021/12/23 09:27:31;593384.00;1.98;1022.80;50270.00;0.17;87.65;;;;;2.70;1.00;;;;;;2263301;61;1919;-88
2021/12/23 09:32:53;609952.00;2.03;1051.41;93468.00;0.31;162.30;;;;;3.10;1.00;;;;;;2266122;61;971;-88
2021/12/23 09:35:24;435341.00;1.45;750.57;0.00;0.00;0.62;;;;;3.50;1.00;;;;;;2271599;61;1010;-87
2021/12/23 09:37:52;599954.00;2.00;1034.14;87830.00;0.29;152.56;;;;;3.50;1.00;;;;;;2268048;61;1045;-87
2021/12/23 09:40:23;542492.00;1.81;935.02;95247.00;0.32;165.37;;;;;3.40;1.00;;;;;;2271227;61;1405;-86
2021/12/23 09:42:53;932556.00;3.11;1613.37;169821.00;0.57;293.96;;;;;3.10;1.00;;;;;;2265653;61;1140;-89
2021/12/23 09:45:20;964992.00;3.22;1670.57;91833.00;0.31;159.47;;;;;2.60;1.00;;;;;;2261252;61;979;-86
2021/12/23 09:47:49;689040.00;2.30;1188.24;90338.00;0.30;156.89;;;;;2.80;1.00;;;;;;2261212;61;2004;-87
2021/12/23 09:50:20;551611.00;1.84;950.74;84465.00;0.28;146.75;;;;;3.60;1.00;;;;;;2271730;61;1439;-87
2021/12/23 09:52:51;729713.00;2.43;1258.80;98143.00;0.33;170.37;;;;;3.80;1.00;;;;;;2267072;61;1176;-87
2021/12/23 09:55:21;678558.00;2.26;1170.08;96483.00;0.32;167.50;;;;;4.00;1.00;;;;;;2263790;61;958;-87
2021/12/23 09:57:51;632709.00;2.11;1090.73;98079.00;0.33;170.26;;;;;4.10;1.00;;;;;;2267026;61;1180;-88
2021/12/23 10:00:21;570615.00;1.90;983.51;101107.00;0.34;175.48;;;;;4.30;1.00;;;;;;2263874;61;1346;-87
2021/12/23 10:02:51;883866.00;2.95;1527.80;101911.00;0.34;176.87;;;;;4.80;1.00;;;;;;2264032;61;997;-87
2021/12/23 10:05:20;818432.00;2.73;1413.29;83270.00;0.28;144.69;;;;;5.00;1.00;;;;;;2267213;61;1184;-87
2021/12/23 10:07:49;762733.00;2.54;1316.21;103266.00;0.34;179.21;;;;;5.60;1.00;;;;;;2264267;61;2013;-88
2021/12/23 10:10:34;578314.00;1.93;996.79;123412.00;0.41;213.97;;;;;5.70;1.00;;;;;;2269241;61;1383;-88
2021/12/23 10:33:09;330771.00;1.10;570.81;0.00;0.00;0.62;;;;;7.40;1.00;;;;;;2243859;61;1075;-91